createdAt,value
2023-01-22T00:00:37.928Z,3.03
2023-01-22T00:03:04.928Z,3.70
2023-01-22T00:05:31.857Z,4.03
2023-01-22T00:07:58.576Z,3.83
2023-01-22T00:10:25.354Z,5.25
2023-01-22T00:12:52.135Z,4.30
2023-01-22T00:15:18.936Z,4.97
2023-01-22T00:17:45.748Z,4.40
2023-01-22T00:20:13.535Z,4.30
2023-01-22T00:22:40.388Z,5.28
2023-01-22T00:25:07.757Z,4.10
2023-01-22T00:27:34.556Z,3.92
2023-01-22T00:30:01.348Z,4.85
2023-01-22T00:32:28.278Z,4.18
2023-01-22T00:34:55.102Z,4.90
2023-01-22T00:37:22.085Z,4.45
2023-01-22T00:39:48.834Z,4.72
2023-01-22T00:42:15.602Z,4.10
2023-01-22T00:44:42.487Z,4.70
2023-01-22T00:47:09.224Z,3.75
2023-01-22T00:49:36.089Z,3.80
2023-01-22T00:52:02.853Z,3.85
2023-01-22T00:54:30.301Z,3.22
2023-01-22T00:56:57.062Z,3.03
2023-01-22T00:59:24.188Z,3.05
2023-01-22T01:01:53.129Z,3.40
2023-01-22T01:04:20.069Z,3.13
2023-01-22T01:06:46.853Z,2.70
2023-01-22T01:09:13.601Z,2.80
2023-01-22T01:11:40.488Z,3.40
2023-01-22T01:14:07.428Z,3.15
2023-01-22T01:16:34.470Z,2.90
2023-01-22T01:19:07.094Z,2.72
2023-01-22T01:21:34.546Z,3.13
2023-01-22T01:24:01.863Z,2.42
2023-01-22T01:26:29.039Z,3.38
2023-01-22T01:28:55.899Z,3.90
2023-01-22T01:31:24.370Z,2.70
2023-01-22T01:33:51.218Z,2.88
2023-01-22T01:36:35.482Z,3.30
2023-01-22T01:39:07.810Z,3.15
2023-01-22T01:41:34.639Z,2.85
2023-01-22T01:44:20.929Z,2.28
2023-01-22T01:46:52.611Z,1.80
2023-01-22T01:49:31.692Z,2.20
2023-01-22T01:52:01.886Z,2.17
2023-01-22T01:54:30.694Z,2.03
2023-01-22T01:57:04.156Z,2.25
2023-01-22T01:59:33.680Z,2.35
2023-01-22T02:02:02.349Z,2.10
2023-01-22T02:04:29.472Z,2.13
2023-01-22T02:06:56.270Z,2.35
2023-01-22T02:09:23.283Z,2.15
2023-01-22T02:11:51.519Z,2.10
2023-01-22T02:14:24.080Z,2.10
2023-01-22T02:17:11.703Z,2.28
2023-01-22T02:19:44.082Z,1.75
2023-01-22T02:22:23.934Z,2.53
2023-01-22T02:24:51.033Z,2.58
2023-01-22T02:27:17.918Z,2.42
2023-01-22T02:29:44.797Z,2.72
2023-01-22T02:32:12.029Z,2.35
2023-01-22T02:34:38.805Z,2.40
2023-01-22T02:37:05.818Z,2.65
2023-01-22T02:39:32.642Z,2.80
2023-01-22T02:42:00.076Z,2.20
2023-01-22T02:44:26.870Z,2.47
2023-01-22T02:46:53.651Z,2.60
2023-01-22T02:49:20.512Z,2.35
2023-01-22T02:51:47.481Z,1.88
2023-01-22T02:54:14.346Z,1.95
2023-01-22T02:56:41.375Z,2.35
2023-01-22T02:59:08.123Z,2.35
2023-01-22T03:01:34.994Z,2.05
2023-01-22T03:04:11.398Z,2.30
2023-01-22T03:06:40.608Z,2.20
2023-01-22T03:09:08.968Z,2.25
2023-01-22T03:11:37.236Z,2.25
2023-01-22T03:14:22.554Z,2.30
2023-01-22T03:17:08.178Z,1.65
2023-01-22T03:19:53.846Z,2.15
2023-01-22T03:22:20.780Z,1.85
2023-01-22T03:24:52.640Z,2.22
2023-01-22T03:27:23.855Z,1.75
2023-01-22T03:29:50.945Z,1.98
2023-01-22T03:32:18.148Z,2.40
2023-01-22T03:34:44.945Z,2.03
2023-01-22T03:37:15.368Z,2.15
2023-01-22T03:39:42.161Z,2.35
2023-01-22T03:42:09.139Z,2.05
2023-01-22T03:44:35.935Z,2.13
2023-01-22T03:47:02.931Z,1.98
2023-01-22T03:49:29.682Z,1.58
2023-01-22T03:51:56.892Z,1.85
2023-01-22T03:54:23.763Z,2.05
2023-01-22T03:56:50.546Z,1.88
2023-01-22T03:59:17.332Z,1.98
2023-01-22T04:01:44.369Z,1.60
2023-01-22T04:04:11.346Z,1.85
2023-01-22T04:06:38.121Z,2.25
2023-01-22T04:09:04.888Z,2.00
2023-01-22T04:11:31.723Z,2.10
2023-01-22T04:13:58.489Z,1.85
2023-01-22T04:16:25.393Z,1.83
2023-01-22T04:18:52.221Z,1.90
2023-01-22T04:21:18.941Z,2.05
2023-01-22T04:23:45.693Z,2.35
2023-01-22T04:26:12.523Z,2.20
2023-01-22T04:28:39.390Z,2.00
2023-01-22T04:31:08.994Z,1.98
2023-01-22T04:33:36.197Z,2.10
2023-01-22T04:36:02.963Z,1.65
2023-01-22T04:38:29.720Z,1.70
2023-01-22T04:40:56.493Z,1.60
2023-01-22T04:43:23.290Z,1.38
2023-01-22T04:45:51.373Z,1.85
2023-01-22T04:48:18.319Z,1.75
2023-01-22T04:50:46.449Z,1.70
2023-01-22T04:53:13.403Z,2.05
2023-01-22T04:55:42.061Z,1.77
2023-01-22T04:58:09.363Z,1.65
2023-01-22T05:00:36.564Z,1.70
2023-01-22T05:03:04.798Z,1.13
2023-01-22T05:05:33.440Z,1.33
2023-01-22T05:08:00.766Z,1.50
2023-01-22T05:10:27.667Z,1.40
2023-01-22T05:12:54.512Z,1.70
2023-01-22T05:15:25.355Z,1.40
2023-01-22T05:17:55.583Z,1.30
2023-01-22T05:20:22.392Z,1.30
2023-01-22T05:22:49.654Z,1.60
2023-01-22T05:25:16.614Z,1.33
2023-01-22T05:27:43.760Z,1.15
2023-01-22T05:30:12.536Z,1.30
2023-01-22T05:32:39.304Z,1.55
2023-01-22T05:35:06.902Z,1.63
2023-01-22T05:37:33.777Z,1.80
2023-01-22T05:40:00.518Z,2.10
2023-01-22T05:42:27.353Z,2.00
2023-01-22T05:44:54.124Z,1.77
2023-01-22T05:47:20.895Z,1.83
2023-01-22T05:49:47.669Z,1.33
2023-01-22T05:52:14.635Z,1.75
2023-01-22T05:54:41.428Z,1.40
2023-01-22T05:57:08.341Z,1.75
2023-01-22T05:59:35.438Z,1.73
2023-01-22T06:02:02.699Z,1.10
2023-01-22T06:04:29.642Z,1.05
2023-01-22T06:06:56.547Z,1.25
2023-01-22T06:09:23.699Z,1.52
2023-01-22T06:11:51.230Z,1.80
2023-01-22T06:14:18.155Z,1.13
2023-01-22T06:16:44.998Z,1.48
2023-01-22T06:19:12.762Z,1.30
2023-01-22T06:21:40.428Z,1.42
2023-01-22T06:24:07.407Z,1.30
2023-01-22T06:26:34.245Z,1.00
2023-01-22T06:29:01.733Z,1.55
2023-01-22T06:31:28.832Z,1.15
2023-01-22T06:33:55.772Z,1.10
2023-01-22T06:36:22.579Z,1.20
2023-01-22T06:38:49.459Z,1.38
2023-01-22T06:41:16.278Z,1.63
2023-01-22T06:43:43.082Z,2.00
2023-01-22T06:46:10.087Z,1.70
2023-01-22T06:48:36.914Z,1.50
2023-01-22T06:51:03.875Z,1.25
2023-01-22T06:53:30.702Z,1.80
2023-01-22T06:55:59.897Z,1.90
2023-01-22T06:58:27.001Z,1.27
2023-01-22T07:00:53.770Z,1.50
2023-01-22T07:03:20.613Z,1.33
2023-01-22T07:05:55.232Z,1.27
2023-01-22T07:08:22.059Z,1.10
2023-01-22T07:10:48.786Z,1.30
2023-01-22T07:13:16.163Z,1.33
2023-01-22T07:15:43.239Z,1.77
2023-01-22T07:18:11.281Z,1.42
2023-01-22T07:20:38.052Z,1.30
2023-01-22T07:23:04.802Z,1.20
2023-01-22T07:25:31.711Z,1.10
2023-01-22T07:28:00.297Z,1.08
2023-01-22T07:30:27.452Z,0.90
2023-01-22T07:32:54.812Z,0.90
2023-01-22T07:35:21.762Z,0.90
2023-01-22T07:37:52.976Z,1.00
2023-01-22T07:40:20.289Z,0.80
2023-01-22T07:42:47.333Z,1.10
2023-01-22T07:45:14.225Z,0.90
2023-01-22T07:47:41.114Z,0.98
2023-01-22T07:50:08.557Z,1.30
2023-01-22T07:52:35.449Z,1.23
2023-01-22T07:55:02.392Z,1.20
2023-01-22T07:57:29.241Z,1.40
2023-01-22T07:59:55.957Z,1.25
2023-01-22T08:02:22.878Z,1.20
2023-01-22T08:04:49.668Z,1.00
2023-01-22T08:07:18.204Z,1.35
2023-01-22T08:09:45.104Z,1.20
2023-01-22T08:12:11.911Z,0.85
2023-01-22T08:14:38.694Z,0.90
2023-01-22T08:17:05.583Z,1.00
2023-01-22T08:19:32.643Z,1.10
2023-01-22T08:21:59.457Z,1.40
2023-01-22T08:24:26.229Z,1.70
2023-01-22T08:26:52.991Z,1.38
2023-01-22T08:29:19.841Z,1.40
2023-01-22T08:31:46.767Z,1.23
2023-01-22T08:34:13.632Z,1.23
2023-01-22T08:36:40.442Z,1.00
2023-01-22T08:39:07.473Z,0.90
2023-01-22T08:41:34.209Z,1.10
2023-01-22T08:44:01.007Z,0.80
2023-01-22T08:46:28.063Z,0.80
2023-01-22T08:48:54.905Z,1.00
2023-01-22T08:51:23.490Z,0.80
2023-01-22T08:53:51.181Z,1.08
2023-01-22T08:56:17.957Z,0.90
2023-01-22T08:58:44.710Z,1.30
2023-01-22T09:01:17.068Z,1.20
2023-01-22T09:03:43.977Z,1.20
2023-01-22T09:06:11.578Z,2.00
2023-01-22T09:08:38.490Z,1.95
2023-01-22T09:11:06.264Z,1.90
2023-01-22T09:13:33.239Z,1.60
2023-01-22T09:16:00.195Z,1.52
2023-01-22T09:18:27.122Z,1.42
2023-01-22T09:20:53.885Z,1.50
2023-01-22T09:23:22.461Z,1.42
2023-01-22T09:25:49.231Z,1.23
2023-01-22T09:28:16.144Z,1.23
2023-01-22T09:30:44.266Z,1.55
2023-01-22T09:33:11.163Z,1.50
2023-01-22T09:35:38.056Z,1.63
2023-01-22T09:38:05.842Z,2.03
2023-01-22T09:40:53.122Z,2.58
2023-01-22T09:43:30.065Z,2.42
2023-01-22T09:46:00.909Z,1.98
2023-01-22T09:48:38.245Z,2.08
2023-01-22T09:51:05.657Z,1.63
2023-01-22T09:53:33.957Z,1.52
2023-01-22T09:56:01.185Z,2.15
2023-01-22T09:58:28.117Z,2.88
2023-01-22T10:01:00.746Z,2.78
2023-01-22T10:03:36.503Z,2.40
2023-01-22T10:06:21.664Z,1.98
2023-01-22T10:09:05.227Z,1.40
2023-01-22T10:11:32.011Z,1.60
2023-01-22T10:14:01.945Z,1.88
2023-01-22T10:16:29.259Z,1.80
2023-01-22T10:19:06.451Z,2.28
2023-01-22T10:21:42.601Z,1.90
2023-01-22T10:24:12.617Z,1.75
2023-01-22T10:26:50.291Z,1.35
2023-01-22T10:29:33.439Z,1.50
2023-01-22T10:32:02.914Z,1.50
2023-01-22T10:34:36.012Z,1.67
2023-01-22T10:37:29.835Z,1.20
2023-01-22T10:40:00.360Z,1.13
2023-01-22T10:42:29.458Z,1.20
2023-01-22T10:45:11.963Z,1.50
2023-01-22T10:47:38.693Z,1.33
2023-01-22T10:50:13.028Z,1.17
2023-01-22T10:52:51.264Z,1.52
2023-01-22T10:55:25.609Z,1.88
2023-01-22T10:58:04.013Z,1.63
2023-01-22T11:00:46.701Z,1.30
2023-01-22T11:03:51.329Z,1.90
2023-01-22T11:06:27.658Z,1.80
2023-01-22T11:09:29.143Z,2.00
2023-01-22T11:12:15.329Z,1.90
2023-01-22T11:14:43.008Z,1.13
2023-01-22T11:17:31.214Z,1.55
2023-01-22T11:20:02.834Z,1.50
2023-01-22T11:22:35.461Z,1.30
2023-01-22T11:25:02.993Z,1.63
2023-01-22T11:27:59.175Z,1.40
2023-01-22T11:30:33.649Z,1.60
2023-01-22T11:33:18.525Z,1.75
2023-01-22T11:35:56.242Z,1.42
2023-01-22T11:38:46.290Z,1.55
2023-01-22T11:41:44.329Z,1.50
2023-01-22T11:44:36.644Z,1.50
2023-01-22T11:47:22.104Z,2.30
2023-01-22T11:50:04.402Z,1.95
2023-01-22T11:53:15.627Z,1.88
2023-01-22T11:55:42.558Z,1.80
2023-01-22T11:58:20.460Z,1.50
2023-01-22T12:01:08.369Z,1.50
2023-01-22T12:03:48.412Z,1.80
2023-01-22T12:06:26.661Z,1.50
2023-01-22T12:08:53.518Z,2.40
2023-01-22T12:11:46.537Z,1.60
2023-01-22T12:14:30.053Z,1.50
2023-01-22T12:17:21.350Z,1.70
2023-01-22T12:20:13.353Z,1.65
2023-01-22T12:22:43.124Z,1.73
2023-01-22T12:25:37.502Z,1.48
2023-01-22T12:28:15.611Z,1.40
2023-01-22T12:30:42.354Z,1.40
2023-01-22T12:33:14.685Z,1.70
2023-01-22T12:35:42.445Z,1.77
2023-01-22T12:38:12.660Z,2.25
2023-01-22T12:41:17.242Z,1.50
2023-01-22T12:43:56.796Z,1.65
2023-01-22T12:46:29.240Z,1.90
2023-01-22T12:49:07.753Z,1.42
2023-01-22T12:51:36.439Z,1.40
2023-01-22T12:54:30.399Z,1.55
2023-01-22T12:57:22.216Z,1.80
2023-01-22T12:59:56.190Z,1.50
2023-01-22T13:02:28.432Z,1.60
2023-01-22T13:04:57.001Z,1.50
2023-01-22T13:07:29.839Z,1.52
2023-01-22T13:10:03.619Z,1.65
2023-01-22T13:12:47.081Z,1.40
2023-01-22T13:15:26.325Z,1.50
2023-01-22T13:18:07.285Z,1.58
2023-01-22T13:20:55.201Z,1.50
2023-01-22T13:23:22.865Z,1.73
2023-01-22T13:25:54.830Z,1.92
2023-01-22T13:28:22.803Z,1.75
2023-01-22T13:31:01.094Z,1.70
2023-01-22T13:33:28.524Z,2.05
2023-01-22T13:35:56.522Z,1.98
2023-01-22T13:38:32.610Z,2.22
2023-01-22T13:41:26.504Z,2.10
2023-01-22T13:43:53.383Z,3.83
2023-01-22T13:46:20.474Z,7.30
2023-01-22T13:48:47.436Z,7.72
2023-01-22T13:51:21.784Z,5.75
2023-01-22T13:53:54.563Z,4.22
2023-01-22T13:56:26.724Z,3.60
2023-01-22T13:59:19.185Z,2.67
2023-01-22T14:01:47.179Z,2.15
2023-01-22T14:04:37.300Z,2.15
2023-01-22T14:07:07.279Z,2.08
2023-01-22T14:09:38.004Z,2.15
2023-01-22T14:12:18.093Z,1.73
2023-01-22T14:14:45.585Z,1.60
2023-01-22T14:17:34.225Z,1.50
2023-01-22T14:20:02.453Z,1.40
2023-01-22T14:22:29.253Z,1.70
2023-01-22T14:24:56.568Z,1.63
2023-01-22T14:27:28.273Z,1.90
2023-01-22T14:29:55.555Z,1.60
2023-01-22T14:32:23.800Z,1.60
2023-01-22T14:34:50.588Z,1.80
2023-01-22T14:37:18.443Z,1.77
2023-01-22T14:39:45.331Z,1.50
2023-01-22T14:42:12.213Z,1.80
2023-01-22T14:44:39.052Z,1.30
2023-01-22T14:47:05.834Z,1.55
2023-01-22T14:49:33.111Z,1.60
2023-01-22T14:52:00.096Z,1.27
2023-01-22T14:54:27.097Z,1.40
2023-01-22T14:56:54.440Z,1.75
2023-01-22T14:59:21.178Z,1.23
2023-01-22T15:01:48.082Z,1.27
2023-01-22T15:04:14.949Z,1.42
2023-01-22T15:06:41.764Z,1.10
2023-01-22T15:09:08.601Z,1.50
2023-01-22T15:11:35.366Z,1.30
2023-01-22T15:14:04.687Z,1.67
2023-01-22T15:16:32.826Z,1.73
2023-01-22T15:18:59.750Z,1.40
2023-01-22T15:21:26.635Z,1.67
2023-01-22T15:23:53.435Z,1.55
2023-01-22T15:26:31.865Z,1.42
2023-01-22T15:28:58.755Z,1.40
2023-01-22T15:31:25.718Z,1.33
2023-01-22T15:33:52.558Z,1.05
2023-01-22T15:36:19.532Z,1.10
2023-01-22T15:38:46.287Z,1.17
2023-01-22T15:41:34.110Z,1.40
2023-01-22T15:44:02.714Z,1.02
2023-01-22T15:46:33.839Z,1.27
2023-01-22T15:49:01.074Z,1.30
2023-01-22T15:51:29.143Z,1.25
2023-01-22T15:54:03.359Z,1.38
2023-01-22T15:56:33.891Z,1.27
2023-01-22T15:59:01.928Z,1.10
2023-01-22T16:01:30.799Z,1.40
2023-01-22T16:04:01.365Z,1.15
2023-01-22T16:06:32.260Z,1.40
2023-01-22T16:09:00.955Z,1.30
2023-01-22T16:11:29.452Z,1.10
2023-01-22T16:13:56.604Z,1.15
2023-01-22T16:16:30.596Z,1.20
2023-01-22T16:18:59.776Z,1.13
2023-01-22T16:21:27.006Z,1.23
2023-01-22T16:23:56.429Z,1.17
2023-01-22T16:26:30.626Z,1.30
2023-01-22T16:28:59.255Z,1.67
2023-01-22T16:31:29.276Z,1.33
2023-01-22T16:34:01.527Z,1.48
2023-01-22T16:36:29.876Z,1.45
2023-01-22T16:38:56.805Z,1.50
2023-01-22T16:41:30.539Z,1.50
2023-01-22T16:44:13.594Z,1.45
2023-01-22T16:46:42.750Z,1.42
2023-01-22T16:49:18.110Z,1.83
2023-01-22T16:51:52.667Z,2.10
2023-01-22T16:54:32.005Z,1.85
2023-01-22T16:57:04.763Z,2.22
2023-01-22T16:59:33.041Z,3.30
2023-01-22T17:02:02.032Z,3.17
2023-01-22T17:04:29.730Z,2.50
2023-01-22T17:06:58.258Z,2.80
2023-01-22T17:09:31.425Z,2.35
2023-01-22T17:12:01.074Z,2.40
2023-01-22T17:14:29.898Z,2.70
2023-01-22T17:16:58.245Z,3.10
2023-01-22T17:19:25.351Z,2.60
2023-01-22T17:21:57.967Z,1.88
2023-01-22T17:24:25.829Z,2.30
2023-01-22T17:26:53.425Z,2.20
2023-01-22T17:29:21.256Z,2.53
2023-01-22T17:31:48.762Z,2.88
2023-01-22T17:34:16.657Z,2.17
2023-01-22T17:36:44.278Z,2.38
2023-01-22T17:39:16.147Z,2.13
2023-01-22T17:41:43.922Z,2.53
2023-01-22T17:44:10.805Z,2.05
2023-01-22T17:46:37.590Z,2.50
2023-01-22T17:49:05.038Z,2.53
2023-01-22T17:51:33.949Z,2.30
2023-01-22T17:54:03.374Z,2.10
2023-01-22T17:56:36.527Z,2.17
2023-01-22T17:59:06.208Z,2.60
2023-01-22T18:01:35.106Z,2.17
2023-01-22T18:04:07.508Z,2.60
2023-01-22T18:06:36.073Z,1.75
2023-01-22T18:09:05.226Z,2.22
2023-01-22T18:11:33.042Z,2.20
2023-01-22T18:14:05.726Z,2.05
2023-01-22T18:16:35.222Z,2.65
2023-01-22T18:19:05.377Z,2.20
2023-01-22T18:21:32.268Z,2.60
2023-01-22T18:24:01.064Z,2.95
2023-01-22T18:26:28.142Z,2.97
2023-01-22T18:28:56.795Z,2.65
2023-01-22T18:31:27.888Z,2.42
2023-01-22T18:33:57.497Z,2.83
2023-01-22T18:36:27.114Z,3.10
2023-01-22T18:38:54.374Z,3.30
2023-01-22T18:41:25.843Z,3.17
2023-01-22T18:43:55.520Z,3.40
2023-01-22T18:46:24.714Z,2.40
2023-01-22T18:48:59.973Z,2.88
2023-01-22T18:51:28.393Z,2.40
2023-01-22T18:53:56.272Z,2.70
2023-01-22T18:56:25.501Z,2.63
2023-01-22T18:58:56.710Z,2.08
2023-01-22T19:01:29.571Z,1.60
2023-01-22T19:03:59.327Z,1.75
2023-01-22T19:06:29.031Z,1.52
2023-01-22T19:09:02.650Z,1.20
2023-01-22T19:11:35.781Z,1.30
2023-01-22T19:14:05.633Z,1.58
2023-01-22T19:16:33.017Z,1.42
2023-01-22T19:19:07.804Z,1.60
2023-01-22T19:21:34.655Z,1.40
2023-01-22T19:24:02.202Z,1.42
2023-01-22T19:26:31.182Z,1.50
2023-01-22T19:29:00.964Z,1.58
2023-01-22T19:31:42.590Z,1.50
2023-01-22T19:34:12.597Z,1.40
2023-01-22T19:36:39.879Z,1.77
2023-01-22T19:39:11.525Z,2.03
2023-01-22T19:41:42.147Z,1.92
2023-01-22T19:44:10.770Z,1.35
2023-01-22T19:46:39.071Z,1.40
2023-01-22T19:49:07.138Z,1.70
2023-01-22T19:51:34.419Z,1.40
2023-01-22T19:54:02.311Z,1.60
2023-01-22T19:56:31.527Z,1.05
2023-01-22T19:59:00.507Z,1.20
2023-01-22T20:01:27.698Z,1.30
2023-01-22T20:03:56.419Z,1.30
2023-01-22T20:06:25.170Z,1.13
2023-01-22T20:08:54.312Z,1.10
2023-01-22T20:11:21.176Z,0.80
2023-01-22T20:13:48.918Z,1.75
2023-01-22T20:16:27.591Z,0.80
2023-01-22T20:18:56.414Z,1.00
2023-01-22T20:21:25.370Z,1.17
2023-01-22T20:23:52.203Z,0.90
2023-01-22T20:26:21.598Z,1.30
2023-01-22T20:28:48.903Z,0.90
2023-01-22T20:31:20.024Z,1.13
2023-01-22T20:33:47.462Z,1.00
2023-01-22T20:36:17.688Z,1.20
2023-01-22T20:38:46.082Z,1.15
2023-01-22T20:41:14.158Z,1.30
2023-01-22T20:43:43.104Z,0.82
2023-01-22T20:46:28.568Z,1.30
2023-01-22T20:48:58.106Z,1.30
2023-01-22T20:51:27.574Z,1.45
2023-01-22T20:53:56.503Z,1.27
2023-01-22T20:56:28.876Z,1.23
2023-01-22T20:59:09.898Z,1.10
2023-01-22T21:01:37.260Z,1.10
2023-01-22T21:04:05.126Z,0.90
2023-01-22T21:06:34.088Z,1.20
2023-01-22T21:09:01.906Z,0.82
2023-01-22T21:11:31.412Z,1.38
2023-01-22T21:13:59.696Z,1.40
2023-01-22T21:16:32.208Z,1.17
2023-01-22T21:19:01.779Z,1.17
2023-01-22T21:21:29.693Z,1.30
2023-01-22T21:23:57.928Z,1.13
2023-01-22T21:26:28.061Z,0.93
2023-01-22T21:29:01.114Z,1.20
2023-01-22T21:31:28.672Z,1.25
2023-01-22T21:34:03.066Z,1.20
2023-01-22T21:36:41.053Z,1.10
2023-01-22T21:39:14.836Z,0.98
2023-01-22T21:41:43.128Z,1.10
2023-01-22T21:44:30.920Z,0.95
2023-01-22T21:46:57.892Z,1.10
2023-01-22T21:49:24.809Z,0.75
2023-01-22T21:51:55.738Z,0.95
2023-01-22T21:54:37.312Z,1.20
2023-01-22T21:57:04.966Z,1.33
2023-01-22T21:59:31.859Z,1.10
2023-01-22T22:01:58.738Z,1.10
2023-01-22T22:04:27.624Z,1.00
2023-01-22T22:06:54.946Z,1.15
2023-01-22T22:09:24.379Z,0.95
2023-01-22T22:11:54.561Z,1.30
2023-01-22T22:14:21.409Z,1.00
2023-01-22T22:16:49.184Z,0.80
2023-01-22T22:19:17.135Z,0.75
2023-01-22T22:21:44.945Z,0.88
2023-01-22T22:24:12.267Z,1.00
2023-01-22T22:26:39.540Z,1.20
2023-01-22T22:29:08.208Z,0.90
2023-01-22T22:31:37.121Z,0.90
2023-01-22T22:34:04.579Z,0.90
2023-01-22T22:36:32.344Z,0.93
2023-01-22T22:39:00.734Z,0.90
2023-01-22T22:41:31.007Z,0.90
2023-01-22T22:43:58.216Z,0.70
2023-01-22T22:46:31.364Z,0.88
2023-01-22T22:49:00.338Z,1.05
2023-01-22T22:51:36.003Z,0.90
2023-01-22T22:54:14.796Z,0.85
2023-01-22T22:56:41.745Z,1.00
2023-01-22T22:59:09.240Z,0.77
2023-01-22T23:01:37.821Z,0.77
2023-01-22T23:04:05.867Z,1.30
2023-01-22T23:06:34.538Z,1.00
2023-01-22T23:09:01.897Z,0.90
2023-01-22T23:11:33.629Z,1.08
2023-01-22T23:14:02.582Z,1.30
2023-01-22T23:16:32.218Z,1.20
2023-01-22T23:19:01.028Z,1.30
2023-01-22T23:21:29.700Z,1.00
2023-01-22T23:23:56.981Z,1.05
2023-01-22T23:26:29.991Z,1.27
2023-01-22T23:29:00.555Z,1.20
2023-01-22T23:31:28.806Z,1.00
2023-01-22T23:33:56.858Z,1.20
2023-01-22T23:36:26.591Z,1.20
2023-01-22T23:38:54.395Z,0.90
2023-01-22T23:41:21.844Z,1.10
2023-01-22T23:43:50.025Z,0.88
2023-01-22T23:46:20.214Z,1.02
2023-01-22T23:48:47.209Z,0.90
2023-01-22T23:51:15.591Z,1.00
2023-01-22T23:53:47.230Z,1.23
2023-01-22T23:56:15.450Z,1.20
2023-01-22T23:58:42.616Z,0.80
